Flight Track Log - Related Links

Times and Time Zones

All times are in EDT time to prevent confusion due to time zone crossing. See the AAL243 flight status page for this flight to view local times or setup timezone preferences in your user account.

Time Position Orientation Groundspeed Altitude Reporting Facility
EDT Latitude Longitude Course Direction KTS MPH feet Rate Location/Type
Sat 10:14:24 PM 25.9960 -80.0970 213° Southwest 290 334 7,900  Level FlightAware ADS-B
Sat 10:14:39 PM 25.9810 -80.1140 226° Southwest 284 327 7,300 -2,462 Descending FlightAware ADS-B
Sat 10:15:03 PM 25.9670 -80.1460 244° Southwest 277 319 6,300 -1,902 Descending FlightAware ADS-B
Sat 10:15:20 PM 25.9590 -80.1650 245° Southwest 276 318 6,000 -1,333 Descending FlightAware ADS-B
Sat 10:15:48 PM 25.9420 -80.2040 244° Southwest 272 313 5,300 -1,500 Descending FlightAware ADS-B
Sat 10:16:04 PM 25.9330 -80.2240 243° Southwest 273 314 4,900 -1,467 Descending FlightAware ADS-B
Sat 10:16:33 PM 25.9170 -80.2610 244° Southwest 271 312 4,200 -1,350 Descending FlightAware ADS-B
Sat 10:16:44 PM 25.9110 -80.2750 245° Southwest 268 308 4,000 -1,333 Descending FlightAware ADS-B
Sat 10:17:09 PM 25.9020 -80.3080 253° West 266 306 3,400 -1,222 Descending FlightAware ADS-B
Sat 10:17:38 PM 25.8980 -80.3470 264° West 257 296 2,900 -500 Descending FlightAware ADS-B
Sat 10:18:09 PM 25.8950 -80.3840 265° West 227 261 2,900  Level FlightAware ADS-B
Sat 10:18:34 PM 25.8930 -80.4100 265° West 223 257 2,900 -136 Level FlightAware ADS-B
Sat 10:18:53 PM 25.8850 -80.4320 248° West 212 244 2,800 -414 Descending FlightAware ADS-B
Sat 10:19:03 PM 25.8760 -80.4380 211° Southwest 205 236 2,700 -692 Descending FlightAware ADS-B
Sat 10:19:19 PM 25.8630 -80.4400 188° South 191 220 2,500 -923 Descending FlightAware ADS-B
Sat 10:19:29 PM 25.8520 -80.4380 171° South 196 226 2,300 -800 Descending FlightAware ADS-B
Sat 10:19:49 PM 25.8350 -80.4350 171° South 178 205 2,100 -615 Descending FlightAware ADS-B
Sat 10:20:08 PM 25.8210 -80.4250 147° Southeast 170 196 1,900 -735 Descending FlightAware ADS-B
Sat 10:20:38 PM 25.8050 -80.4070 135° Southeast 155 178 1,500 -667 Descending FlightAware ADS-B
Sat 10:21:11 PM 25.7980 -80.3850 109° East 132 152 1,200 -517 Descending FlightAware ADS-B
Sat 10:21:36 PM 25.7970 -80.3680 94° East 134 154 1,000 -738 Descending FlightAware ADS-B
Sat 10:22:16 PM 25.7980 -80.3410 88° East 131 151 400 -761 Descending FlightAware ADS-B
Sat 10:22:47 PM 25.7990 -80.3190 87° East 133 153 100 Descending FlightAware ADS-B
Sat 10:23:16 PM 25.7990 -80.3010 90° East 110 127 Descending FlightAware ADS-B
Sat 10:23:43 PM 25.8000 -80.2900 84° East 47 54 Level FlightAware ADS-B
Sat 10:24:22 PM 25.8000 -80.2840 90° East 27 31 Level FlightAware ADS-B
Sat 10:27:00 PM 25.7000 -80.0124 90° East  Level FlightAware Approximate
Sat 10:28:00 PM 25.6826 -79.9052 104° East  Level FlightAware Approximate
Sat 10:29:00 PM 25.6581 -79.7991 105° East  Level FlightAware Approximate
Sat 10:30:00 PM 25.6333 -79.6933 90° East  Level FlightAware Approximate
Sat 10:31:00 PM 25.6185 -79.5858 104° East  Level FlightAware Approximate
Sat 10:32:00 PM 25.5941 -79.4797 104° East  Level FlightAware Approximate
Sat 10:33:00 PM 25.5666 -79.3746 108° East  Level FlightAware Approximate
Sat 10:34:00 PM 25.5500 -79.2680 90° East  Level FlightAware Approximate
Sat 10:35:00 PM 25.4895 -79.1819 128° Southeast  Level FlightAware Approximate
Sat 10:36:00 PM 25.4240 -79.1002 133° Southeast  Level FlightAware Approximate
Sat 10:37:00 PM 25.3552 -79.0218 138° Southeast  Level FlightAware Approximate
Sat 10:38:00 PM 25.2868 -78.9434 130° Southeast  Level FlightAware Approximate
Sat 10:39:00 PM 25.2237 -78.8593 130° Southeast  Level FlightAware Approximate
Sat 10:40:00 PM 25.1607 -78.7754 130° Southeast  Level FlightAware Approximate
Sat 10:41:00 PM 25.0954 -78.6938 130° Southeast  Level FlightAware Approximate
Sat 10:42:00 PM 25.0324 -78.6098 130° Southeast  Level FlightAware Approximate
Sat 10:43:00 PM 24.9683 -78.5270 131° Southeast  Level FlightAware Approximate
Sat 10:44:00 PM 24.9018 -78.4465 133° Southeast  Level FlightAware Approximate
Sat 10:45:00 PM 24.8340 -78.3674 133° Southeast  Level FlightAware Approximate
Sat 10:46:00 PM 24.7754 -78.2798 126° Southeast  Level FlightAware Approximate
Sat 10:47:00 PM 24.7109 -78.1976 132° Southeast  Level FlightAware Approximate
Sat 10:48:00 PM 24.6453 -78.1164 132° Southeast  Level FlightAware Approximate
Sat 10:49:00 PM 24.5796 -78.0353 132° Southeast  Level FlightAware Approximate
Sat 10:50:00 PM 24.5138 -77.9542 132° Southeast  Level FlightAware Approximate
Sat 10:51:00 PM 24.4467 -77.8747 134° Southeast  Level FlightAware Approximate
Sat 10:52:00 PM 24.3782 -77.7965 134° Southeast  Level FlightAware Approximate
Sat 10:53:00 PM 24.3130 -77.7152 131° Southeast  Level FlightAware Approximate
Sat 10:54:00 PM 24.2483 -77.6334 131° Southeast  Level FlightAware Approximate
Sat 10:55:00 PM 24.1835 -77.5516 131° Southeast  Level FlightAware Approximate
Sat 10:56:00 PM 24.1188 -77.4699 131° Southeast  Level FlightAware Approximate
Sat 10:57:00 PM 24.0540 -77.3883 131° Southeast  Level FlightAware Approximate
Sat 10:58:00 PM 23.9886 -77.3073 131° Southeast  Level FlightAware Approximate
Sat 10:59:00 PM 23.9232 -77.2263 131° Southeast  Level FlightAware Approximate
Sat 11:00:00 PM 23.8577 -77.1455 132° Southeast  Level FlightAware Approximate
Sat 11:01:00 PM 23.7922 -77.0647 132° Southeast  Level FlightAware Approximate
Sat 11:02:00 PM 23.7264 -76.9842 132° Southeast  Level FlightAware Approximate
Sat 11:03:00 PM 23.6605 -76.9039 132° Southeast  Level FlightAware Approximate
Sat 11:04:00 PM 23.5945 -76.8237 132° Southeast  Level FlightAware Approximate
Sat 11:05:00 PM 23.5286 -76.7435 132° Southeast  Level FlightAware Approximate
Sat 11:06:00 PM 23.4625 -76.6635 132° Southeast  Level FlightAware Approximate
Sat 11:07:00 PM 23.3965 -76.5835 132° Southeast  Level FlightAware Approximate
Sat 11:08:00 PM 23.3304 -76.5036 132° Southeast  Level FlightAware Approximate
Sat 11:09:00 PM 23.2642 -76.4238 132° Southeast  Level FlightAware Approximate
Sat 11:10:00 PM 23.1980 -76.3440 132° Southeast  Level FlightAware Approximate
Sat 11:11:00 PM 23.1318 -76.2644 132° Southeast  Level FlightAware Approximate
Sat 11:12:00 PM 23.0655 -76.1848 132° Southeast  Level FlightAware Approximate
Sat 11:13:00 PM 22.9992 -76.1052 132° Southeast  Level FlightAware Approximate
Sat 11:14:00 PM 22.9328 -76.0258 132° Southeast  Level FlightAware Approximate
Sat 11:15:00 PM 22.8662 -75.9467 133° Southeast  Level FlightAware Approximate
Sat 11:16:00 PM 22.7989 -75.8683 133° Southeast  Level FlightAware Approximate
Sat 11:17:00 PM 22.7315 -75.7900 133° Southeast  Level FlightAware Approximate
Sat 11:18:00 PM 22.6641 -75.7118 133° Southeast  Level FlightAware Approximate
Sat 11:19:00 PM 22.5967 -75.6336 133° Southeast  Level FlightAware Approximate
Sat 11:20:00 PM 22.5292 -75.5556 133° Southeast  Level FlightAware Approximate
Sat 11:21:00 PM 22.4617 -75.4775 132° Southeast  Level FlightAware Approximate
Sat 11:22:00 PM 22.3952 -75.3986 132° Southeast  Level FlightAware Approximate
Sat 11:23:00 PM 22.3286 -75.3197 132° Southeast  Level FlightAware Approximate
Sat 11:24:00 PM 22.2619 -75.2410 132° Southeast  Level FlightAware Approximate
Sat 11:25:00 PM 22.1953 -75.1622 132° Southeast  Level FlightAware Approximate
Sat 11:26:00 PM 22.1286 -75.0836 132° Southeast  Level FlightAware Approximate
Sat 11:27:00 PM 22.0578 -75.0095 138° Southeast  Level FlightAware Approximate
Sat 11:28:00 PM 21.9840 -74.9387 138° Southeast  Level FlightAware Approximate
Sat 11:29:00 PM 21.9102 -74.8680 138° Southeast  Level FlightAware Approximate
Sat 11:30:00 PM 21.8363 -74.7974 138° Southeast  Level FlightAware Approximate
Sat 11:31:00 PM 21.7624 -74.7268 138° Southeast  Level FlightAware Approximate
Sat 11:32:00 PM 21.6885 -74.6563 138° Southeast  Level FlightAware Approximate
Sat 11:33:00 PM 21.6146 -74.5859 138° Southeast  Level FlightAware Approximate
Sat 11:34:00 PM 21.5406 -74.5155 138° Southeast  Level FlightAware Approximate
Sat 11:35:00 PM 21.4666 -74.4453 139° Southeast  Level FlightAware Approximate
Sat 11:36:00 PM 21.3773 -74.3606 139° Southeast  Level FlightAware Approximate
Sat 11:37:00 PM 21.2880 -74.2761 139° Southeast  Level FlightAware Approximate
Sat 11:37:04 PM 25.7990 -80.2840 139° Southeast  Level FlightAware ADS-B
Sat 11:38:00 PM 21.1987 -74.1917 139° Southeast  Level FlightAware Approximate
Sat 11:38:26 PM 25.7990 -80.2850 270° West 10 12  Level FlightAware ADS-B
Sat 11:41:00 PM 25.6954 -79.9626 104° East  Level FlightAware Approximate
Sat 11:41:34 PM 25.7980 -80.2850 104° East 2 2  Level FlightAware ADS-B
Sat 11:42:02 PM 25.7990 -80.2840 42° Northeast 15 17 54 Level FlightAware ADS-B
Sat 11:42:30 PM 25.7990 -80.2850 270° West 2 2 56 Level FlightAware ADS-B
Sat 11:43:06 PM 25.7990 -80.2860 270° West 21 24 60 Level FlightAware ADS-B
Sat 11:45:00 PM 25.7122 -80.0471 114° Southeast  Level FlightAware Approximate
Sat 11:45:42 PM 25.7990 -80.2920 114° Southeast 22 25  Level FlightAware ADS-B
Sat 11:46:13 PM 25.7990 -80.2930 270° West 29 33 96 Level FlightAware ADS-B
Sat 11:46:36 PM 25.7990 -80.2950 270° West 27 31 107 Level FlightAware ADS-B
Sat 11:47:20 PM 25.7990 -80.2970 270° West 25 29 116 Level FlightAware ADS-B
Sat 11:47:52 PM 25.7990 -80.2990 270° West 25 29 140 Level FlightAware ADS-B
Sat 11:48:12 PM 25.8000 -80.3000 318° Northwest 18 21 165 Level FlightAware ADS-B
Sat 11:49:16 PM 25.8000 -80.3010 270° West 25 29 185 Level FlightAware ADS-B
Sat 11:49:29 PM 25.8000 -80.3020 270° West 26 30 306 Level FlightAware ADS-B
Sat 11:50:04 PM 25.8010 -80.3010 42° Northeast 32 37 353 Level FlightAware ADS-B
Sat 11:50:42 PM 25.8020 -80.2810 87° East 175 201 600 Level FlightAware ADS-B
Sat 11:50:54 PM 25.8020 -80.2670 90° East 179 206 500 2,550 Climbing FlightAware ADS-B
Sat 11:51:22 PM 25.8000 -80.2420 95° East 182 209 1,700 2,550 Climbing FlightAware ADS-B
Sat 11:51:34 PM 25.7950 -80.2320 119° Southeast 183 211 2,200 1,535 Climbing FlightAware ADS-B
Sat 11:52:05 PM 25.7800 -80.2030 120° Southeast 225 259 2,800 1,200 Climbing FlightAware ADS-B
Sat 11:52:19 PM 25.7720 -80.1880 121° Southeast 245 282 3,100 1,674 Climbing FlightAware ADS-B
Sat 11:52:48 PM 25.7550 -80.1570 121° Southeast 264 304 4,000 2,049 Climbing FlightAware ADS-B
Sat 11:53:00 PM 25.7500 -80.1410 109° East 266 306 4,500 2,714 Climbing FlightAware ADS-B
Sat 11:53:30 PM 25.7400 -80.1010 106° East 270 311 5,900 2,667 Climbing FlightAware ADS-B
Sat 11:53:54 PM 25.7330 -80.0680 103° East 274 315 6,900 2,491 Climbing FlightAware ADS-B
Sat 11:54:23 PM 25.7240 -80.0280 104° East 280 322 8,100 2,526 Climbing FlightAware ADS-B
Sat 11:54:51 PM 25.7160 -79.9870 102° East 285 328 9,300 2,512 Climbing FlightAware ADS-B
Sat 11:55:06 PM 25.7110 -79.9670 106° East 286 329 9,900 1,527 Climbing FlightAware ADS-B
Sat 11:55:46 PM 25.6980 -79.9070 104° East 322 371 10,700 1,084 Climbing FlightAware ADS-B
Sat 11:56:29 PM 25.6810 -79.8330 104° East 364 419 11,400 1,429 Climbing FlightAware ADS-B
Sat 11:57:10 PM 25.6650 -79.7570 103° East 374 430 12,700 2,000 Climbing FlightAware ADS-B
Sat 11:57:53 PM 25.6470 -79.6780 104° East 379 436 14,200 1,953 Climbing FlightAware ADS-B
Sat 11:58:36 PM 25.6290 -79.5960 104° East 390 449 15,500 1,765 Climbing FlightAware ADS-B
Sat 11:59:18 PM 25.6100 -79.5130 104° East 399 459 16,700 1,642 Climbing FlightAware ADS-B
Sun 12:00:11 AM 25.5860 -79.4070 104° East 414 476 18,100 1,636 Climbing FlightAware ADS-B
Sun 12:00:57 AM 25.5650 -79.3130 104° East 421 484 19,400 1,694 Climbing FlightAware ADS-B
Sun 12:01:36 AM 25.5280 -79.2370 118° Southeast 431 496 20,500 1,500 Climbing FlightAware ADS-B
Sun 12:02:17 AM 25.4750 -79.1680 130° Southeast 440 506 21,400 1,395 Climbing FlightAware ADS-B
Sun 12:03:02 AM 25.4150 -79.0910 131° Southeast 447 514 22,500 1,412 Climbing FlightAware ADS-B
Sun 12:03:42 AM 25.3590 -79.0200 131° Southeast 451 519 23,400 1,275 Climbing FlightAware ADS-B
Sun 12:04:22 AM 25.3050 -78.9510 131° Southeast 464 534 24,200 1,149 Climbing FlightAware ADS-B
Sun 12:05:16 AM 25.2280 -78.8520 131° Southeast 475 547 25,200 1,211 Climbing FlightAware ADS-B
Sun 12:06:16 AM 25.1390 -78.7390 131° Southeast 476 548 26,500 1,294 Climbing FlightAware ADS-B
Sun 12:06:58 AM 25.0770 -78.6610 131° Southeast 487 560 27,400 766 Climbing FlightAware ADS-B
Sun 12:07:50 AM 25.0110 -78.5750 130° Southeast 492 566 27,700 180 Climbing FlightAware ADS-B
Sun 12:08:38 AM 24.9520 -78.4970 130° Southeast 492 566 27,700  Level FlightAware ADS-B
Sun 12:09:17 AM 24.9030 -78.4330 130° Southeast 492 566 27,700  Level FlightAware ADS-B
Sun 12:10:18 AM 24.8270 -78.3330 130° Southeast 492 566 27,700  Level FlightAware ADS-B
Sun 12:11:00 AM 24.7750 -78.2650 130° Southeast 492 566 27,700 4,500 Level FlightAware ADS-B
Sun 12:11:30 AM 24.6703 -78.1578 130° Southeast 488 562 33,100 4,333 Climbing Miami Center
Sun 12:12:30 AM 24.5894 -78.0564 131° Southeast 494 568 34,200 934 Climbing Miami Center
Sun 12:13:32 AM 24.5006 -77.9458 131° Southeast 488 562 35,000 397 Climbing Miami Center
Sun 12:14:31 AM 24.4136 -77.8356 131° Southeast 488 562 35,000  Level Miami Center
Sun 12:15:30 AM 24.3244 -77.7256 132° Southeast 488 562 35,000  Level Miami Center
Sun 12:16:30 AM 24.2350 -77.6156 132° Southeast 483 556 35,000  Level Miami Center
Sun 12:17:31 AM 24.1478 -77.5125 133° Southeast 483 556 35,000  Level Miami Center
Sun 12:18:30 AM 24.0625 -77.4006 130° Southeast 478 550 35,000  Level Miami Center
Sun 12:19:32 AM 23.9750 -77.2908 131° Southeast 478 550 35,000  Level Miami Center
Sun 12:20:30 AM 23.8875 -77.1861 132° Southeast 478 550 35,000  Level Miami Center
Sun 12:21:30 AM 23.8000 -77.0792 132° Southeast 473 544 35,000  Level Miami Center
Sun 12:22:31 AM 23.7103 -76.9722 132° Southeast 473 544 35,000  Level Miami Center
Sun 12:23:31 AM 23.6247 -76.8633 131° Southeast 473 544 35,000  Level Miami Center
Sun 12:24:30 AM 23.5325 -76.7569 133° Southeast 473 544 35,000  Level Miami Center
Sun 12:25:30 AM 23.4447 -76.6506 132° Southeast 473 544 35,000  Level Miami Center
Sun 12:26:30 AM 23.3547 -76.5444 133° Southeast 473 544 35,000  Level Miami Center
Sun 12:27:31 AM 23.2561 -76.4225 131° Southeast 480 552 35,000  Level Miami Center
Sun 12:28:31 AM 23.1639 -76.3119 132° Southeast 480 552 35,000  Level Miami Center
Sun 12:29:32 AM 23.0756 -76.2042 132° Southeast 480 552 35,000  Level Miami Center
Sun 12:30:30 AM 22.9853 -76.0983 133° Southeast 485 558 35,000  Level Miami Center
Sun 12:31:30 AM 22.8950 -75.9908 132° Southeast 485 558 35,000  Level Miami Center
Sun 12:32:31 AM 22.8064 -75.8808 131° Southeast 485 558 35,000  Level Miami Center
Sun 12:33:30 AM 22.7139 -75.7758 134° Southeast 485 558 35,000  Level Miami Center
Sun 12:34:32 AM 22.6253 -75.6708 132° Southeast 485 558 35,000  Level Miami Center
Sun 12:35:30 AM 22.5367 -75.5636 132° Southeast 485 558 35,000  Level Miami Center
Sun 12:36:30 AM 22.4458 -75.4567 133° Southeast 480 552 35,000  Level Miami Center
Sun 12:37:31 AM 22.3592 -75.3542 132° Southeast 480 552 35,000  Level Miami Center
Sun 12:38:32 AM 22.2683 -75.2475 133° Southeast 480 552 35,000  Level Miami Center
Sun 12:39:31 AM 22.1772 -75.1411 133° Southeast 475 547 35,000  Level Miami Center
Sun 12:40:29 AM 22.0842 -75.0392 135° Southeast 480 552 35,000  Level Miami Center
Sun 12:41:29 AM 21.9806 -74.9422 139° Southeast 480 552 35,000  Level Miami Center
Sun 12:42:29 AM 21.8769 -74.8406 138° Southeast 490 564 35,000  Level Miami Center
Sun 12:43:30 AM 21.7733 -74.7461 140° Southeast 490 564 35,000  Level Miami Center
Sun 12:44:31 AM 21.6717 -74.6428 137° Southeast 495 570 35,000  Level Miami Center
Sun 12:45:31 AM 21.5700 -74.5417 137° Southeast 495 570 35,000 -50 Level Miami Center
Sun 12:46:31 AM 21.4661 -74.4500 141° Southeast 490 564 34,900 -50 Descending Miami Center
Sun 12:47:30 AM 21.3644 -74.3536 139° Southeast 490 564 34,900 50 Level Miami Center
Sun 12:48:32 AM 21.2606 -74.2553 139° Southeast 490 564 35,000  Climbing Miami Center
Sun 12:49:29 AM 21.1586 -74.1572 138° Southeast 490 564 34,900  Descending Miami Center
Sun 12:50:31 AM 21.0569 -74.0658 140° Southeast 490 564 35,000  Climbing Miami Center
Sun 12:51:29 AM 20.9550 -73.9703 139° Southeast 490 564 34,900 -51 Descending Miami Center
Sun 12:52:29 AM 20.8569 -73.8767 138° Southeast 485 558 34,900  Level Miami Center
Sun 12:53:29 AM 20.7550 -73.7836 140° Southeast 490 564 34,900 50 Level Miami Center
Sun 12:54:29 AM 20.6508 -73.6883 139° Southeast 490 564 35,000 50 Climbing Miami Center
Sun 12:55:30 AM 20.5467 -73.5933 139° Southeast 490 564 35,000  Level Miami Center
Sun 12:56:29 AM 20.4444 -73.4961 138° Southeast 490 564 35,000 202 Level Miami Center
Sun 12:57:29 AM 20.3403 -73.4014 140° Southeast 490 564 35,400 10 Climbing Miami Center
Sun 12:59:00 AM 20.1950 -73.2716 140° Southeast  Level FlightAware Approximate
Sun 01:06:00 AM 19.5159 -72.6886 142° Southeast  Level FlightAware Approximate
Sun 01:07:00 AM 19.4167 -72.6080 143° Southeast  Level FlightAware Approximate
Sun 01:08:00 AM 19.3174 -72.5276 143° Southeast  Level FlightAware Approximate
Sun 01:09:00 AM 19.2180 -72.4472 143° Southeast  Level FlightAware Approximate
Sun 01:10:00 AM 19.1187 -72.3670 143° Southeast  Level FlightAware Approximate
Sun 01:11:00 AM 19.0193 -72.2868 143° Southeast  Level FlightAware Approximate
Sun 01:12:00 AM 18.9198 -72.2067 143° Southeast  Level FlightAware Approximate
Sun 01:13:00 AM 18.8204 -72.1267 143° Southeast  Level FlightAware Approximate
Sun 01:14:00 AM 18.7208 -72.0469 143° Southeast  Level FlightAware Approximate
Sun 01:15:00 AM 18.6213 -71.9671 143° Southeast  Level FlightAware Approximate
Sun 01:16:00 AM 18.5287 -71.8787 137° Southeast  Level FlightAware Approximate
Sun 01:17:00 AM 18.4264 -71.8034 146° Southeast  Level FlightAware Approximate
Sun 01:18:00 AM 18.3228 -71.7296 145° Southeast  Level FlightAware Approximate
Sun 01:19:00 AM 18.2216 -71.6524 144° Southeast  Level FlightAware Approximate
Sun 01:20:00 AM 18.1207 -71.5747 144° Southeast  Level FlightAware Approximate
Sun 01:21:00 AM 18.0198 -71.4971 144° Southeast  Level FlightAware Approximate
Sun 01:22:00 AM 17.9189 -71.4196 144° Southeast  Level FlightAware Approximate
Sun 01:23:00 AM 17.8179 -71.3422 144° Southeast  Level FlightAware Approximate
Sun 01:24:00 AM 17.7169 -71.2649 144° Southeast  Level FlightAware Approximate
Sun 01:25:00 AM 17.6159 -71.1877 144° Southeast  Level FlightAware Approximate
Sun 01:26:00 AM 17.5148 -71.1105 144° Southeast  Level FlightAware Approximate
Sun 01:27:00 AM 17.4137 -71.0335 144° Southeast  Level FlightAware Approximate
Sun 01:28:00 AM 17.3126 -70.9565 144° Southeast  Level FlightAware Approximate
Sun 01:29:00 AM 17.2115 -70.8796 144° Southeast  Level FlightAware Approximate
Sun 01:30:00 AM 17.1103 -70.8028 144° Southeast  Level FlightAware Approximate
Sun 01:31:00 AM 17.0091 -70.7261 144° Southeast  Level FlightAware Approximate
Sun 01:32:00 AM 16.9079 -70.6494 144° Southeast  Level FlightAware Approximate
Sun 01:33:00 AM 16.8066 -70.5729 144° Southeast  Level FlightAware Approximate
Sun 01:34:00 AM 16.7053 -70.4964 144° Southeast  Level FlightAware Approximate
Sun 01:35:00 AM 16.6040 -70.4200 144° Southeast  Level FlightAware Approximate
Sun 01:36:00 AM 16.5026 -70.3437 144° Southeast  Level FlightAware Approximate
Sun 01:37:00 AM 16.4013 -70.2674 144° Southeast  Level FlightAware Approximate
Sun 01:38:00 AM 16.2999 -70.1913 144° Southeast  Level FlightAware Approximate
Sun 01:39:00 AM 16.1984 -70.1152 144° Southeast  Level FlightAware Approximate
Sun 01:40:00 AM 16.0972 -70.0394 144° Southeast  Level FlightAware Approximate
Sun 01:41:00 AM 15.9960 -69.9637 144° Southeast  Level FlightAware Approximate
Sun 01:42:00 AM 15.8948 -69.8879 144° Southeast  Level FlightAware Approximate
Sun 01:43:00 AM 15.7936 -69.8122 144° Southeast  Level FlightAware Approximate
Sun 01:44:00 AM 15.6923 -69.7366 144° Southeast  Level FlightAware Approximate
Sun 01:45:00 AM 15.5910 -69.6611 144° Southeast  Level FlightAware Approximate
Sun 01:46:00 AM 15.4897 -69.5856 144° Southeast  Level FlightAware Approximate
Sun 01:47:00 AM 15.3884 -69.5102 144° Southeast  Level FlightAware Approximate
Sun 01:48:00 AM 15.2870 -69.4349 144° Southeast  Level FlightAware Approximate
Sun 01:49:00 AM 15.1856 -69.3597 144° Southeast  Level FlightAware Approximate
Sun 01:50:00 AM 15.0842 -69.2845 144° Southeast  Level FlightAware Approximate
Sun 01:51:00 AM 14.9828 -69.2094 144° Southeast  Level FlightAware Approximate
Sun 01:52:00 AM 14.8813 -69.1344 144° Southeast  Level FlightAware Approximate
Sun 01:53:00 AM 14.7799 -69.0595 144° Southeast  Level FlightAware Approximate
Sun 01:54:00 AM 14.6784 -68.9846 144° Southeast  Level FlightAware Approximate
Sun 01:55:00 AM 14.5768 -68.9098 145° Southeast  Level FlightAware Approximate
Sun 01:56:00 AM 14.4753 -68.8350 145° Southeast  Level FlightAware Approximate
Sun 01:57:00 AM 14.3737 -68.7604 145° Southeast  Level FlightAware Approximate
Sun 01:58:00 AM 14.2721 -68.6858 145° Southeast  Level FlightAware Approximate
Sun 01:59:00 AM 14.1705 -68.6112 145° Southeast  Level FlightAware Approximate
Sun 02:00:00 AM 14.0688 -68.5367 145° Southeast  Level FlightAware Approximate
Sun 02:01:00 AM 13.9671 -68.4623 145° Southeast  Level FlightAware Approximate
Sun 02:02:00 AM 13.8655 -68.3880 145° Southeast  Level FlightAware Approximate
Sun 02:03:00 AM 13.7637 -68.3137 145° Southeast  Level FlightAware Approximate
Sun 02:04:00 AM 13.6620 -68.2395 145° Southeast  Level FlightAware Approximate
Sun 02:05:00 AM 13.5602 -68.1654 145° Southeast  Level FlightAware Approximate
Sun 02:06:00 AM 13.4585 -68.0913 145° Southeast  Level FlightAware Approximate
Sun 02:07:00 AM 13.3567 -68.0173 145° Southeast  Level FlightAware Approximate
Sun 02:08:00 AM 13.2548 -67.9433 145° Southeast  Level FlightAware Approximate
Sun 02:09:00 AM 13.1530 -67.8694 145° Southeast  Level FlightAware Approximate
Sun 02:10:00 AM 13.0511 -67.7955 145° Southeast  Level FlightAware Approximate
Sun 02:11:00 AM 12.9492 -67.7218 145° Southeast  Level FlightAware Approximate
Sun 02:12:00 AM 12.8473 -67.6481 145° Southeast  Level FlightAware Approximate
Sun 02:13:00 AM 12.7449 -67.5752 145° Southeast  Level FlightAware Approximate
Sun 02:14:00 AM 12.6424 -67.5023 145° Southeast  Level FlightAware Approximate
Sun 02:15:00 AM 12.5400 -67.4295 145° Southeast  Level FlightAware Approximate
Sun 02:16:00 AM 12.4375 -67.3568 145° Southeast  Level FlightAware Approximate
Sun 02:17:00 AM 12.3350 -67.2841 145° Southeast  Level FlightAware Approximate
Sun 02:18:00 AM 12.2324 -67.2114 145° Southeast  Level FlightAware Approximate
Sun 02:19:00 AM 12.1299 -67.1389 145° Southeast  Level FlightAware Approximate
Sun 02:20:00 AM 12.0273 -67.0664 145° Southeast  Level FlightAware Approximate
Sun 02:21:00 AM 11.9248 -66.9939 145° Southeast  Level FlightAware Approximate
Sun 02:22:00 AM 11.8227 -66.9207 145° Southeast  Level FlightAware Approximate
Sun 02:23:00 AM 11.7206 -66.8476 145° Southeast  Level FlightAware Approximate
Sun 02:24:00 AM 11.6184 -66.7745 145° Southeast  Level FlightAware Approximate
Sun 02:25:00 AM 11.5163 -66.7015 145° Southeast  Level FlightAware Approximate
Sun 02:26:00 AM 11.4141 -66.6285 145° Southeast  Level FlightAware Approximate
Sun 02:27:00 AM 11.3120 -66.5556 145° Southeast  Level FlightAware Approximate
Sun 02:28:00 AM 11.2098 -66.4828 145° Southeast  Level FlightAware Approximate
Sun 02:29:00 AM 11.1076 -66.4100 145° Southeast  Level FlightAware Approximate
Sun 02:30:00 AM 11.0053 -66.3372 145° Southeast  Level FlightAware Approximate
Sun 02:31:00 AM 10.9031 -66.2645 145° Southeast  Level FlightAware Approximate
Sun 02:32:00 AM 10.8008 -66.1919 145° Southeast  Level FlightAware Approximate
Sun 02:33:00 AM 10.6985 -66.1193 145° Southeast  Level FlightAware Approximate
Sun 02:34:00 AM 10.5962 -66.0468 145° Southeast  Level FlightAware Approximate
Sun 02:35:00 AM 10.4939 -65.9743 145° Southeast  Level FlightAware Approximate
Sun 02:36:00 AM 10.3916 -65.9018 145° Southeast  Level FlightAware Approximate
Sun 02:37:00 AM 10.2892 -65.8294 145° Southeast  Level FlightAware Approximate
Sun 02:38:00 AM 10.1869 -65.7570 145° Southeast  Level FlightAware Approximate
Sun 02:39:00 AM 10.0845 -65.6847 145° Southeast  Level FlightAware Approximate
Sun 02:40:00 AM 9.9821 -65.6125 145° Southeast  Level FlightAware Approximate
Sun 02:41:00 AM 9.8797 -65.5403 145° Southeast  Level FlightAware Approximate
Sun 02:42:00 AM 9.7773 -65.4681 145° Southeast  Level FlightAware Approximate
Sun 02:43:00 AM 9.6748 -65.3960 145° Southeast  Level FlightAware Approximate
Sun 02:44:00 AM 9.5724 -65.3239 145° Southeast  Level FlightAware Approximate
Sun 02:45:00 AM 9.4701 -65.2520 145° Southeast  Level FlightAware Approximate
Sun 02:46:00 AM 9.3679 -65.1802 145° Southeast  Level FlightAware Approximate
Sun 02:47:00 AM 9.2656 -65.1084 145° Southeast  Level FlightAware Approximate
Sun 02:48:00 AM 9.1634 -65.0366 145° Southeast  Level FlightAware Approximate
Sun 02:49:00 AM 9.0611 -64.9649 145° Southeast  Level FlightAware Approximate
Sun 02:50:00 AM 8.9588 -64.8933 145° Southeast  Level FlightAware Approximate
Sun 02:51:00 AM 8.8565 -64.8216 145° Southeast  Level FlightAware Approximate
Sun 02:52:00 AM 8.7541 -64.7501 145° Southeast  Level FlightAware Approximate
Sun 02:53:00 AM 8.6518 -64.6785 145° Southeast  Level FlightAware Approximate
Sun 02:54:00 AM 8.5494 -64.6070 145° Southeast  Level FlightAware Approximate
Sun 02:55:00 AM 8.4471 -64.5356 145° Southeast  Level FlightAware Approximate
Sun 02:56:00 AM 8.3447 -64.4641 145° Southeast  Level FlightAware Approximate
Sun 02:57:00 AM 8.2423 -64.3927 145° Southeast  Level FlightAware Approximate
Sun 02:58:00 AM 8.1399 -64.3214 145° Southeast  Level FlightAware Approximate
Sun 02:59:00 AM 8.0375 -64.2501 145° Southeast  Level FlightAware Approximate
Sun 03:00:00 AM 7.9350 -64.1788 145° Southeast  Level FlightAware Approximate
Sun 03:01:00 AM 7.8326 -64.1075 145° Southeast  Level FlightAware Approximate
Sun 03:02:00 AM 7.7302 -64.0363 145° Southeast  Level FlightAware Approximate
Sun 03:03:00 AM 7.6277 -63.9651 145° Southeast  Level FlightAware Approximate
Sun 03:04:00 AM 7.5252 -63.8940 145° Southeast  Level FlightAware Approximate
Sun 03:05:00 AM 7.4227 -63.8229 145° Southeast  Level FlightAware Approximate
Sun 03:06:00 AM 7.3202 -63.7518 145° Southeast  Level FlightAware Approximate
Sun 03:07:00 AM 7.2177 -63.6808 145° Southeast  Level FlightAware Approximate
Sun 03:08:00 AM 7.1152 -63.6098 145° Southeast  Level FlightAware Approximate
Sun 03:09:00 AM 7.0127 -63.5388 146° Southeast  Level FlightAware Approximate
Sun 03:10:00 AM 6.9101 -63.4678 146° Southeast  Level FlightAware Approximate
Sun 03:11:00 AM 6.8076 -63.3969 146° Southeast  Level FlightAware Approximate
Sun 03:12:00 AM 6.7050 -63.3260 146° Southeast  Level FlightAware Approximate
Sun 03:13:00 AM 6.6024 -63.2552 146° Southeast  Level FlightAware Approximate
Sun 03:14:00 AM 6.4998 -63.1843 146° Southeast  Level FlightAware Approximate
Sun 03:15:00 AM 6.3972 -63.1135 146° Southeast  Level FlightAware Approximate
Sun 03:16:00 AM 6.2946 -63.0428 146° Southeast  Level FlightAware Approximate
Sun 03:17:00 AM 6.1920 -62.9720 146° Southeast  Level FlightAware Approximate
Sun 03:18:00 AM 6.0894 -62.9013 146° Southeast  Level FlightAware Approximate
Sun 03:19:00 AM 5.9868 -62.8306 146° Southeast  Level FlightAware Approximate
Sun 03:20:00 AM 5.8841 -62.7600 146° Southeast  Level FlightAware Approximate
Sun 03:21:00 AM 5.7815 -62.6894 146° Southeast  Level FlightAware Approximate
Sun 03:22:00 AM 5.6788 -62.6187 146° Southeast  Level FlightAware Approximate
Sun 03:23:00 AM 5.5761 -62.5482 146° Southeast  Level FlightAware Approximate
Sun 03:24:00 AM 5.4735 -62.4776 146° Southeast  Level FlightAware Approximate
Sun 03:25:00 AM 5.3708 -62.4071 146° Southeast  Level FlightAware Approximate
Sun 03:26:00 AM 5.2681 -62.3366 146° Southeast  Level FlightAware Approximate
Sun 03:27:00 AM 5.1654 -62.2661 146° Southeast  Level FlightAware Approximate
Sun 03:28:00 AM 5.0627 -62.1956 146° Southeast  Level FlightAware Approximate
Sun 03:29:00 AM 4.9600 -62.1252 146° Southeast  Level FlightAware Approximate
Sun 03:30:00 AM 4.8572 -62.0547 146° Southeast  Level FlightAware Approximate
Sun 03:31:00 AM 4.7545 -61.9843 146° Southeast  Level FlightAware Approximate
Sun 03:32:00 AM 4.6518 -61.9140 146° Southeast  Level FlightAware Approximate
Sun 03:33:00 AM 4.5490 -61.8436 146° Southeast  Level FlightAware Approximate
Sun 03:34:00 AM 4.4463 -61.7733 146° Southeast  Level FlightAware Approximate
Sun 03:35:00 AM 4.3435 -61.7029 146° Southeast  Level FlightAware Approximate
Sun 03:36:00 AM 4.2407 -61.6326 146° Southeast  Level FlightAware Approximate
Sun 03:37:00 AM 4.1380 -61.5624 146° Southeast  Level FlightAware Approximate
Sun 03:38:00 AM 4.0352 -61.4921 146° Southeast  Level FlightAware Approximate
Sun 03:39:00 AM 3.9324 -61.4219 146° Southeast  Level FlightAware Approximate
Sun 03:40:00 AM 3.8296 -61.3516 146° Southeast  Level FlightAware Approximate
Sun 03:41:00 AM 3.7268 -61.2814 146° Southeast  Level FlightAware Approximate
Sun 03:42:00 AM 3.6240 -61.2112 146° Southeast  Level FlightAware Approximate
Sun 03:43:00 AM 3.5212 -61.1411 146° Southeast  Level FlightAware Approximate
Sun 03:44:00 AM 3.4184 -61.0709 146° Southeast  Level FlightAware Approximate
Sun 03:45:00 AM 3.3156 -61.0008 146° Southeast  Level FlightAware Approximate
Sun 03:46:00 AM 3.2128 -60.9306 146° Southeast  Level FlightAware Approximate
Sun 03:47:00 AM 3.1102 -60.8607 146° Southeast  Level FlightAware Approximate
Sun 03:48:00 AM 3.0076 -60.7907 146° Southeast  Level FlightAware Approximate
Sun 03:49:00 AM 2.9050 -60.7208 146° Southeast  Level FlightAware Approximate
Sun 03:50:00 AM 2.8021 -60.6514 146° Southeast  Level FlightAware Approximate
Sun 03:51:00 AM 2.6988 -60.5825 146° Southeast  Level FlightAware Approximate
Sun 03:52:00 AM 2.5955 -60.5136 146° Southeast  Level FlightAware Approximate
Sun 03:53:00 AM 2.4922 -60.4448 146° Southeast  Level FlightAware Approximate
Sun 03:54:00 AM 2.3889 -60.3759 146° Southeast  Level FlightAware Approximate
Sun 03:55:00 AM 2.2856 -60.3071 146° Southeast  Level FlightAware Approximate
Sun 03:56:00 AM 2.1823 -60.2383 146° Southeast  Level FlightAware Approximate
Sun 03:57:00 AM 2.0790 -60.1695 146° Southeast  Level FlightAware Approximate
Sun 03:58:00 AM 1.9757 -60.1007 146° Southeast  Level FlightAware Approximate
Sun 03:59:00 AM 1.8724 -60.0319 146° Southeast  Level FlightAware Approximate
Sun 04:00:00 AM 1.7691 -59.9631 146° Southeast  Level FlightAware Approximate
Sun 04:01:00 AM 1.6657 -59.8943 146° Southeast  Level FlightAware Approximate
Sun 04:02:00 AM 1.5624 -59.8255 146° Southeast  Level FlightAware Approximate
Sun 04:03:00 AM 1.4591 -59.7568 146° Southeast  Level FlightAware Approximate
Sun 04:04:00 AM 1.3557 -59.6880 146° Southeast  Level FlightAware Approximate
Sun 04:05:00 AM 1.2524 -59.6193 146° Southeast  Level FlightAware Approximate
Sun 04:06:00 AM 1.1491 -59.5505 146° Southeast  Level FlightAware Approximate
Sun 04:07:00 AM 1.0458 -59.4818 146° Southeast  Level FlightAware Approximate
Sun 04:08:00 AM 0.9424 -59.4130 146° Southeast  Level FlightAware Approximate
Sun 04:09:00 AM 0.8391 -59.3443 146° Southeast  Level FlightAware Approximate
Sun 04:10:00 AM 0.7358 -59.2756 146° Southeast  Level FlightAware Approximate
Sun 04:11:00 AM 0.6324 -59.2068 146° Southeast  Level FlightAware Approximate
Sun 04:12:00 AM 0.5291 -59.1381 146° Southeast  Level FlightAware Approximate
Sun 04:13:00 AM 0.4260 -59.0695 146° Southeast  Level FlightAware Approximate
Sun 04:14:00 AM 0.3229 -59.0010 146° Southeast  Level FlightAware Approximate
Sun 04:15:00 AM 0.2198 -58.9324 146° Southeast  Level FlightAware Approximate
Sun 04:16:00 AM 0.1167 -58.8639 146° Southeast  Level FlightAware Approximate
Sun 04:17:00 AM 0.0136 -58.7953 146° Southeast  Level FlightAware Approximate
Sun 04:18:00 AM -0.0895 -58.7267 146° Southeast  Level FlightAware Approximate
Sun 04:19:00 AM -0.1926 -58.6582 146° Southeast  Level FlightAware Approximate
Sun 04:20:00 AM -0.2957 -58.5896 146° Southeast  Level FlightAware Approximate
Sun 04:21:00 AM -0.3988 -58.5211 146° Southeast  Level FlightAware Approximate
Sun 04:22:00 AM -0.5019 -58.4525 146° Southeast  Level FlightAware Approximate
Sun 04:22:03 AM -1.2720 -58.6350 146° Southeast 460 529 37,000  Level FlightAware ADS-B
Sun 04:22:50 AM -1.3670 -58.5860 153° Southeast 460 529 37,000  Level FlightAware ADS-B
Sun 04:23:26 AM -1.4240 -58.5560 152° Southeast 460 529 37,000  Level FlightAware ADS-B
Sun 04:24:14 AM -1.5010 -58.5150 152° Southeast 460 529 37,000  Level FlightAware ADS-B
Sun 04:24:49 AM -1.5570 -58.4850 152° Southeast 460 529 37,000  Level FlightAware ADS-B
Sun 04:25:31 AM -1.6240 -58.4490 152° Southeast 460 529 37,000  Level FlightAware ADS-B
Sun 04:26:19 AM -1.7010 -58.4090 153° Southeast 460 529 37,000  Level FlightAware ADS-B
Sun 04:26:55 AM -1.7580 -58.3780 151° Southeast 460 529 37,000  Level FlightAware ADS-B
Sun 04:27:41 AM -1.8320 -58.3390 152° Southeast 460 529 37,000  Level FlightAware ADS-B
Sun 04:28:18 AM -1.8910 -58.3070 152° Southeast 460 529 37,000  Level FlightAware ADS-B
Sun 04:29:06 AM -1.9670 -58.2670 152° Southeast 460 529 37,000  Level FlightAware ADS-B
Sun 04:29:42 AM -2.0250 -58.2360 152° Southeast 460 529 37,000  Level FlightAware ADS-B
Sun 04:30:48 AM -2.1300 -58.1800 152° Southeast 460 529 37,000  Level FlightAware ADS-B
Sun 04:31:24 AM -2.1880 -58.1490 152° Southeast 460 529 37,000  Level FlightAware ADS-B
Sun 04:34:00 AM -2.4491 -57.9605 144° Southeast  Level Estimated
Sun 04:35:00 AM -2.5495 -57.8880 144° Southeast  Level Estimated
Sun 04:36:00 AM -2.6499 -57.8155 144° Southeast  Level Estimated
Sun 04:37:00 AM -2.7503 -57.7429 144° Southeast  Level Estimated
Sun 04:38:00 AM -2.8507 -57.6704 144° Southeast  Level Estimated
Sun 04:39:00 AM -2.9511 -57.5978 144° Southeast  Level Estimated
Sun 04:40:00 AM -3.0514 -57.5252 144° Southeast  Level Estimated
Sun 04:41:00 AM -3.1518 -57.4526 144° Southeast  Level Estimated
Sun 04:42:00 AM -3.2522 -57.3801 144° Southeast  Level Estimated
Sun 04:43:00 AM -3.3526 -57.3074 144° Southeast  Level Estimated
Sun 04:44:00 AM -3.4529 -57.2348 144° Southeast  Level Estimated
Sun 04:45:00 AM -3.5533 -57.1622 144° Southeast  Level Estimated
Sun 04:46:00 AM -3.6536 -57.0895 144° Southeast  Level Estimated
Sun 04:47:00 AM -3.7540 -57.0168 144° Southeast  Level Estimated
Sun 04:48:00 AM -3.8543 -56.9441 144° Southeast  Level Estimated
Sun 04:49:00 AM -3.9546 -56.8714 144° Southeast  Level Estimated
Sun 04:50:00 AM -4.0550 -56.7987 144° Southeast  Level Estimated
Sun 04:51:00 AM -4.1553 -56.7259 144° Southeast  Level Estimated
Sun 04:52:00 AM -4.2556 -56.6531 144° Southeast  Level Estimated
Sun 04:53:00 AM -4.3559 -56.5804 144° Southeast  Level Estimated
Sun 04:54:00 AM -4.4562 -56.5075 144° Southeast  Level Estimated
Sun 04:55:00 AM -4.5565 -56.4347 144° Southeast  Level Estimated
Sun 04:56:00 AM -4.6568 -56.3619 144° Southeast  Level Estimated
Sun 04:57:00 AM -4.7571 -56.2890 144° Southeast  Level Estimated
Sun 04:58:00 AM -4.8573 -56.2161 144° Southeast  Level Estimated
Sun 04:59:00 AM -4.9576 -56.1432 144° Southeast  Level Estimated
Sun 05:00:00 AM -5.0578 -56.0703 144° Southeast  Level Estimated
Sun 05:01:00 AM -5.1581 -55.9973 144° Southeast  Level Estimated
Sun 05:02:00 AM -5.2583 -55.9243 144° Southeast  Level Estimated
Sun 05:03:00 AM -5.3585 -55.8513 144° Southeast  Level Estimated
Sun 05:04:00 AM -5.4588 -55.7783 144° Southeast  Level Estimated
Sun 05:05:00 AM -5.5590 -55.7053 144° Southeast  Level Estimated
Sun 05:06:00 AM -5.6592 -55.6322 144° Southeast  Level Estimated
Sun 05:07:00 AM -5.7594 -55.5591 144° Southeast  Level Estimated
Sun 05:08:00 AM -5.8595 -55.4860 144° Southeast  Level Estimated
Sun 05:09:00 AM -5.9597 -55.4128 144° Southeast  Level Estimated
Sun 05:10:00 AM -6.0599 -55.3396 144° Southeast  Level Estimated
Sun 05:11:00 AM -6.1600 -55.2664 144° Southeast  Level Estimated
Sun 05:12:00 AM -6.2602 -55.1932 144° Southeast  Level Estimated
Sun 05:13:00 AM -6.3603 -55.1199 144° Southeast  Level Estimated
Sun 05:14:00 AM -6.4604 -55.0466 144° Southeast  Level Estimated
Sun 05:15:00 AM -6.5605 -54.9733 144° Southeast  Level Estimated
Sun 05:16:00 AM -6.6606 -54.9000 144° Southeast  Level Estimated
Sun 05:17:00 AM -6.7607 -54.8266 144° Southeast  Level Estimated
Sun 05:18:00 AM -6.8608 -54.7532 144° Southeast  Level Estimated
Sun 05:19:00 AM -6.9609 -54.6797 144° Southeast  Level Estimated
Sun 05:20:00 AM -7.0609 -54.6063 144° Southeast  Level Estimated
Sun 05:21:00 AM -7.1610 -54.5328 144° Southeast  Level Estimated
Sun 05:22:00 AM -7.2610 -54.4592 144° Southeast  Level Estimated
Sun 05:23:00 AM -7.3610 -54.3857 144° Southeast  Level Estimated
Sun 05:24:00 AM -7.4610 -54.3121 144° Southeast  Level Estimated
Sun 05:25:00 AM -7.5610 -54.2384 144° Southeast  Level Estimated
Sun 05:26:00 AM -7.6610 -54.1648 144° Southeast  Level Estimated
Sun 05:27:00 AM -7.7610 -54.0911 144° Southeast  Level Estimated
Sun 05:28:00 AM -7.8609 -54.0173 144° Southeast  Level Estimated
Sun 05:29:00 AM -7.9609 -53.9436 144° Southeast  Level Estimated
Sun 05:30:00 AM -8.0608 -53.8698 144° Southeast  Level Estimated
Sun 05:31:00 AM -8.1608 -53.7959 144° Southeast  Level Estimated
Sun 05:32:00 AM -8.2607 -53.7220 144° Southeast  Level Estimated
Sun 05:33:00 AM -8.3606 -53.6481 144° Southeast  Level Estimated
Sun 05:34:00 AM -8.4605 -53.5741 144° Southeast  Level Estimated
Sun 05:35:00 AM -8.5603 -53.5001 144° Southeast  Level Estimated
Sun 05:36:00 AM -8.6602 -53.4261 144° Southeast  Level Estimated
Sun 05:37:00 AM -8.7600 -53.3520 144° Southeast  Level Estimated
Sun 05:38:00 AM -8.8598 -53.2779 144° Southeast  Level Estimated
Sun 05:39:00 AM -8.9596 -53.2038 144° Southeast  Level Estimated
Sun 05:40:00 AM -9.0594 -53.1296 144° Southeast  Level Estimated
Sun 05:41:00 AM -9.1592 -53.0553 144° Southeast  Level Estimated
Sun 05:42:00 AM -9.2590 -52.9810 144° Southeast  Level Estimated
Sun 05:43:00 AM -9.3587 -52.9067 144° Southeast  Level Estimated
Sun 05:44:00 AM -9.4585 -52.8324 144° Southeast  Level Estimated
Sun 05:45:00 AM -9.5582 -52.7580 144° Southeast  Level Estimated
Sun 05:46:00 AM -9.6579 -52.6835 144° Southeast  Level Estimated
Sun 05:47:00 AM -9.7576 -52.6090 144° Southeast  Level Estimated
Sun 05:48:00 AM -9.8573 -52.5345 144° Southeast  Level Estimated
Sun 05:49:00 AM -9.9569 -52.4599 144° Southeast  Level Estimated
Sun 05:50:00 AM -10.0565 -52.3853 144° Southeast  Level Estimated
Sun 05:51:00 AM -10.1562 -52.3106 144° Southeast  Level Estimated
Sun 05:52:00 AM -10.2555 -52.2360 144° Southeast  Level Estimated
Sun 05:53:00 AM -10.3549 -52.1614 144° Southeast  Level Estimated
Sun 05:54:00 AM -10.4542 -52.0868 144° Southeast  Level Estimated
Sun 05:55:00 AM -10.5535 -52.0121 144° Southeast  Level Estimated
Sun 05:56:00 AM -10.6528 -51.9374 144° Southeast  Level Estimated
Sun 05:57:00 AM -10.7521 -51.8626 144° Southeast  Level Estimated
Sun 05:58:00 AM -10.8514 -51.7878 143° Southeast  Level Estimated
Sun 05:59:00 AM -10.9506 -51.7129 143° Southeast  Level Estimated
Sun 06:00:00 AM -11.0499 -51.6380 143° Southeast  Level Estimated
Sun 06:01:00 AM -11.1491 -51.5630 143° Southeast  Level Estimated
Sun 06:02:00 AM -11.2483 -51.4879 143° Southeast  Level Estimated
Sun 06:03:00 AM -11.3474 -51.4128 143° Southeast  Level Estimated
Sun 06:04:00 AM -11.4466 -51.3377 143° Southeast  Level Estimated
Sun 06:05:00 AM -11.5457 -51.2625 143° Southeast  Level Estimated
Sun 06:06:00 AM -11.6448 -51.1873 143° Southeast  Level Estimated
Sun 06:07:00 AM -11.7439 -51.1120 143° Southeast  Level Estimated
Sun 06:08:00 AM -11.8430 -51.0366 143° Southeast  Level Estimated
Sun 06:09:00 AM -11.9421 -50.9612 143° Southeast  Level Estimated
Sun 06:10:00 AM -12.0411 -50.8857 143° Southeast  Level Estimated
Sun 06:11:00 AM -12.1402 -50.8102 143° Southeast  Level Estimated
Sun 06:12:00 AM -12.2392 -50.7346 143° Southeast  Level Estimated
Sun 06:13:00 AM -12.3381 -50.6590 143° Southeast  Level Estimated
Sun 06:14:00 AM -12.4371 -50.5833 143° Southeast  Level Estimated
Sun 06:15:00 AM -12.5360 -50.5076 143° Southeast  Level Estimated
Sun 06:16:00 AM -12.6349 -50.4318 143° Southeast  Level Estimated
Sun 06:17:00 AM -12.7338 -50.3559 143° Southeast  Level Estimated
Sun 06:18:00 AM -12.8327 -50.2800 143° Southeast  Level Estimated
Sun 06:19:00 AM -12.9315 -50.2040 143° Southeast  Level Estimated
Sun 06:20:00 AM -13.0303 -50.1280 143° Southeast  Level Estimated
Sun 06:21:00 AM -13.1291 -50.0519 143° Southeast  Level Estimated
Sun 06:22:00 AM -13.2279 -49.9757 143° Southeast  Level Estimated
Sun 06:23:00 AM -13.3267 -49.8995 143° Southeast  Level Estimated
Sun 06:24:00 AM -13.4254 -49.8232 143° Southeast  Level Estimated
Sun 06:25:00 AM -13.5241 -49.7468 143° Southeast  Level Estimated
Sun 06:26:00 AM -13.6228 -49.6704 143° Southeast  Level Estimated
Sun 06:27:00 AM -13.7215 -49.5939 143° Southeast  Level Estimated
Sun 06:27:37 AM -14.7520 -49.2030 143° Southeast 489 563 37,000  Level FlightAware ADS-B
Sun 06:28:00 AM -13.8201 -49.5174 143° Southeast  Level Estimated
Sun 06:28:21 AM -14.8390 -49.1590 154° Southeast 490 564 37,000  Level FlightAware ADS-B
Sun 06:29:06 AM -14.9350 -49.1090 153° Southeast 491 565 37,000 -140 Level FlightAware ADS-B
Sun 06:29:47 AM -15.0140 -49.0680 153° Southeast 492 566 36,800 -1,059 Descending FlightAware ADS-B
Sun 06:30:31 AM -15.1060 -49.0190 153° Southeast 485 558 35,500 -2,329 Descending FlightAware ADS-B
Sun 06:31:12 AM -15.1860 -48.9780 154° Southeast 468 539 33,500 -2,965 Descending FlightAware ADS-B
Sun 06:31:56 AM -15.2710 -48.9330 153° Southeast 449 517 31,300 -2,929 Descending FlightAware ADS-B
Sun 06:32:36 AM -15.3440 -48.8920 152° Southeast 436 502 29,400 -2,571 Descending FlightAware ADS-B
Sun 06:33:13 AM -15.3890 -48.8510 139° Southeast 437 503 28,000 -2,850 Descending FlightAware ADS-B
Sun 06:33:56 AM -15.4470 -48.7690 126° Southeast 425 489 25,600 -3,068 Descending FlightAware ADS-B
Sun 06:34:41 AM -15.4970 -48.6950 125° Southeast 408 470 23,500 -3,035 Descending FlightAware ADS-B
Sun 06:35:21 AM -15.5400 -48.6300 124° Southeast 402 463 21,300 -4,050 Descending FlightAware ADS-B
Sun 06:36:01 AM -15.5820 -48.5670 125° Southeast 411 473 18,100 -4,533 Descending FlightAware ADS-B
Sun 06:36:51 AM -15.6370 -48.4840 125° Southeast 416 479 14,500 -3,400 Descending FlightAware ADS-B
Sun 06:37:31 AM -15.6800 -48.4190 124° Southeast 402 463 13,000 -2,268 Descending FlightAware ADS-B
Sun 06:38:13 AM -15.7200 -48.3590 125° Southeast 360 414 11,400 -2,829 Descending FlightAware ADS-B
Sun 06:38:41 AM -15.7480 -48.3170 125° Southeast 346 398 9,700 -3,623 Descending FlightAware ADS-B
Sun 06:39:06 AM -15.7710 -48.2830 125° Southeast 342 394 8,200 -3,536 Descending FlightAware ADS-B
Sun 06:39:37 AM -15.7970 -48.2430 124° Southeast 335 386 6,400 -2,700 Descending FlightAware ADS-B
Sun 06:40:06 AM -15.8230 -48.2050 125° Southeast 303 349 5,500 -1,111 Descending FlightAware ADS-B
Sun 06:40:31 AM -15.8410 -48.1770 124° Southeast 263 303 5,400 -333 Descending FlightAware ADS-B
Sun 06:40:42 AM -15.8480 -48.1660 123° Southeast 248 285 5,300 -146 Descending FlightAware ADS-B
Sun 06:41:12 AM -15.8660 -48.1390 125° Southeast 211 243 5,300  Level FlightAware ADS-B
Sun 06:41:26 AM -15.8710 -48.1260 112° Southeast 193 222 5,300  Level FlightAware ADS-B
Sun 06:41:57 AM -15.8730 -48.1010 95° East 175 201 5,300  Level FlightAware ADS-B
Sun 06:42:21 AM -15.8710 -48.0790 85° East 174 200 5,300  Level FlightAware ADS-B
Sun 06:42:52 AM -15.8690 -48.0550 85° East 165 190 5,300 -400 Level FlightAware ADS-B
Sun 06:43:21 AM -15.8670 -48.0320 85° East 154 177 4,900 -764 Descending FlightAware ADS-B
Sun 06:43:47 AM -15.8660 -48.0140 87° East 135 155 4,600 -750 Descending FlightAware ADS-B
Sun 06:44:17 AM -15.8640 -47.9960 83° East 129 148 4,200 -667 Descending FlightAware ADS-B
Sun 06:44:41 AM -15.8630 -47.9800 86° East 130 150 4,000 -600 Descending FlightAware ADS-B
Sun 06:45:07 AM -15.8610 -47.9640 83° East 137 158 3,700 -737 Descending FlightAware ADS-B
Sun 06:45:38 AM -15.8600 -47.9430 87° East 142 163 3,300 -774 Descending FlightAware ADS-B
Sun 06:45:55 AM -15.8590 -47.9330 84° East 110 127 -11,647 Descending FlightAware ADS-B
Sun 06:46:36 AM -15.8570 -47.9190 82° East 46 53  Level FlightAware ADS-B

Login

Don't have an account? Register now (free) for customized features, flight alerts, and more!